createdAt,value
2023-08-29T00:06:38.926Z,100273.25
2023-08-29T00:16:42.850Z,100276.84
2023-08-29T00:26:48.188Z,100279.53
2023-08-29T00:36:53.135Z,100281.63
2023-08-29T00:46:58.817Z,100278.22
2023-08-29T00:57:01.821Z,100279.94
2023-08-29T01:07:07.008Z,100282.47
2023-08-29T01:17:12.535Z,100283.00
2023-08-29T01:27:18.860Z,100282.97
2023-08-29T01:37:21.810Z,100283.50
2023-08-29T01:47:26.328Z,100285.06
2023-08-29T01:57:32.347Z,100284.47
2023-08-29T02:07:36.962Z,100284.13
2023-08-29T02:17:40.027Z,100284.50
2023-08-29T02:27:44.778Z,100286.75
2023-08-29T02:37:47.680Z,100289.19
2023-08-29T02:47:52.088Z,100292.72
2023-08-29T02:57:55.076Z,100295.69
2023-08-29T03:08:00.463Z,100300.34
2023-08-29T03:18:05.250Z,100304.97
2023-08-29T03:28:10.096Z,100305.81
2023-08-29T03:38:13.023Z,100309.78
2023-08-29T03:48:28.398Z,100316.03
2023-08-29T03:58:32.243Z,100318.28
2023-08-29T04:08:36.715Z,100323.41
2023-08-29T04:18:39.611Z,100330.25
2023-08-29T04:28:44.186Z,100337.53
2023-08-29T04:38:49.044Z,100342.34
2023-08-29T04:48:53.337Z,100348.13
2023-08-29T04:58:56.308Z,100352.72
2023-08-29T05:09:00.544Z,100357.94
2023-08-29T05:19:06.431Z,100361.66
2023-08-29T05:29:11.229Z,100365.72
2023-08-29T05:39:14.142Z,100366.38
2023-08-29T05:49:18.543Z,100370.09
2023-08-29T05:59:21.424Z,100369.91
2023-08-29T06:09:28.069Z,100373.72
2023-08-29T06:19:31.027Z,100377.22
2023-08-29T06:29:35.615Z,100376.69
2023-08-29T06:39:38.534Z,100378.47
2023-08-29T06:49:43.321Z,100378.56
2023-08-29T06:59:46.466Z,100379.22
2023-08-29T07:09:51.254Z,100380.03
2023-08-29T07:19:54.889Z,100381.19
2023-08-29T07:29:59.371Z,100380.09
2023-08-29T07:40:02.219Z,100381.16
2023-08-29T07:50:07.725Z,100381.31
2023-08-29T08:00:11.675Z,100381.31
2023-08-29T08:10:19.210Z,100380.75
2023-08-29T08:20:22.722Z,100378.69
2023-08-29T08:30:28.733Z,100377.88
2023-08-29T08:40:34.097Z,100376.81
2023-08-29T08:50:40.041Z,100375.72
2023-08-29T09:00:42.815Z,100372.34
2023-08-29T09:10:47.931Z,100370.91
2023-08-29T09:20:54.594Z,100365.91
2023-08-29T09:31:07.775Z,100363.94
2023-08-29T09:41:15.828Z,100361.63
2023-08-29T09:51:25.303Z,100358.00
2023-08-29T10:01:29.646Z,100355.97
2023-08-29T10:11:44.542Z,100353.78
2023-08-29T10:21:56.139Z,100351.06
2023-08-29T10:32:03.337Z,100348.00
2023-08-29T10:42:12.495Z,100345.78
2023-08-29T10:52:19.866Z,100344.03
2023-08-29T11:02:28.355Z,100342.63
2023-08-29T11:12:33.221Z,100341.28
2023-08-29T11:22:36.308Z,100339.41
2023-08-29T11:32:43.024Z,100336.28
2023-08-29T11:43:08.734Z,100331.19
2023-08-29T11:53:10.314Z,100329.41
2023-08-29T12:03:13.356Z,100326.38
2023-08-29T12:13:17.582Z,100324.16
2023-08-29T12:23:30.243Z,100322.03
2023-08-29T12:33:37.009Z,100320.78
2023-08-29T12:43:40.750Z,100316.72
2023-08-29T12:53:48.070Z,100315.91
2023-08-29T13:03:51.164Z,100314.16
2023-08-29T13:13:55.624Z,100313.63
2023-08-29T13:23:58.863Z,100312.91
2023-08-29T13:34:03.226Z,100312.00
2023-08-29T13:44:06.400Z,100310.84
2023-08-29T13:54:13.292Z,100310.25
2023-08-29T14:04:16.431Z,100308.41
2023-08-29T14:14:21.384Z,100306.22
2023-08-29T14:24:27.064Z,100306.19
2023-08-29T14:34:31.400Z,100306.22
2023-08-29T14:44:35.044Z,100307.31
2023-08-29T14:54:39.516Z,100306.16
2023-08-29T15:04:43.700Z,100305.06
2023-08-29T15:14:50.877Z,100304.16
2023-08-29T15:24:54.056Z,100303.41
2023-08-29T15:34:59.651Z,100300.81
2023-08-29T15:45:02.637Z,100298.53
2023-08-29T15:55:08.398Z,100297.53
2023-08-29T16:05:11.748Z,100297.66
2023-08-29T16:15:18.183Z,100297.88
2023-08-29T16:25:21.409Z,100298.47
2023-08-29T16:35:25.650Z,100299.16
2023-08-29T16:45:29.126Z,100300.63
2023-08-29T16:55:33.640Z,100303.16
2023-08-29T17:05:37.601Z,100305.63
2023-08-29T17:15:42.524Z,100307.91
2023-08-29T17:25:45.805Z,100309.38
2023-08-29T17:35:50.292Z,100311.19
2023-08-29T17:45:57.639Z,100313.09
2023-08-29T17:56:01.994Z,100312.59
2023-08-29T18:06:22.638Z,100315.16
2023-08-29T18:16:46.136Z,100315.22
2023-08-29T18:37:51.445Z,100314.06
2023-08-29T18:48:01.694Z,100315.03
2023-08-29T18:58:06.501Z,100315.94
2023-08-29T19:08:15.473Z,100315.84
2023-08-29T19:18:20.055Z,100307.53
2023-08-29T19:28:25.615Z,100307.72
2023-08-29T19:38:30.465Z,100306.16
2023-08-29T19:48:34.347Z,100303.91
2023-08-29T19:58:40.452Z,100305.84
2023-08-29T20:08:44.446Z,100307.47
2023-08-29T20:18:50.535Z,100309.75
2023-08-29T20:28:53.698Z,100306.06
2023-08-29T20:38:58.859Z,100300.56
2023-08-29T20:49:01.939Z,100302.13
2023-08-29T20:59:08.014Z,100300.66
2023-08-29T21:09:13.636Z,100298.81
2023-08-29T21:19:18.244Z,100301.25
2023-08-29T21:29:22.441Z,100306.31
2023-08-29T21:39:26.923Z,100308.09
2023-08-29T21:49:29.703Z,100306.63
2023-08-29T21:59:34.048Z,100310.28
2023-08-29T22:09:37.199Z,100314.03
2023-08-29T22:19:41.458Z,100318.28
2023-08-29T22:29:44.499Z,100321.91
2023-08-29T22:39:50.401Z,100324.84
2023-08-29T22:49:53.291Z,100324.75
2023-08-29T22:59:57.724Z,100326.09
2023-08-29T23:10:00.699Z,100325.53
2023-08-29T23:20:11.009Z,100328.59
2023-08-29T23:30:13.896Z,100329.06
2023-08-29T23:40:20.629Z,100330.91
2023-08-29T23:50:24.788Z,100332.97
